| time (UTC) | temp F | wind direction | speed knots | gust knots | rain 1hr in | rain 24hr in | rain mn in | humidity % | barometer mb |
| 20260906223004 | 90 | 163 | 2.6 | 6.1 | 0.00 | 0.00 | 0.00 | 57 | 1009.5 |
| 20260906221503 | 89 | 244 | 0.9 | 4.3 | 0.00 | 0.00 | 0.00 | 58 | 1009.6 |
| 20260906220003 | 91 | 214 | 0.9 | 4.3 | 0.00 | 0.00 | 0.00 | 58 | 1009.7 |
| 20260906214501 | 91 | 15 | 0.9 | 8.7 | 0.00 | 0.00 | 0.00 | 57 | 1009.8 |
| 20260906213001 | 90 | 55 | 2.6 | 7.0 | 0.00 | 0.00 | 0.00 | 59 | 1009.9 |
| 20260906211500 | 91 | 46 | 3.5 | 7.8 | 0.00 | 0.00 | 0.00 | 57 | 1009.9 |
| 20260906210003 | 94 | 67 | 4.3 | 7.8 | 0.00 | 0.00 | 0.00 | 52 | 1009.9 |
| 20260906204605 | 94 | 24 | 0.9 | 4.3 | 0.00 | 0.00 | 0.00 | 50 | 1010.1 |
| 20260906204501 | 94 | 24 | 1.7 | 4.3 | 0.00 | 0.00 | 0.00 | 49 | 1010.1 |
| 20260906203000 | 95 | 199 | 0.0 | 7.8 | 0.00 | 0.00 | 0.00 | 50 | 1010.3 |
| 20260906201501 | 94 | 238 | 1.7 | 8.7 | 0.00 | 0.00 | 0.00 | 52 | 1010.3 |
| 20260906200003 | 93 | 259 | 0.9 | 7.0 | 0.00 | 0.00 | 0.00 | 54 | 1010.5 |
| 20260906194501 | 94 | 85 | 1.7 | 6.1 | 0.00 | 0.00 | 0.00 | 50 | 1010.7 |
| 20260906193100 | 94 | 227 | 5.2 | 7.8 | 0.00 | 0.00 | 0.00 | 53 | 1010.9 |
| 20260906193001 | 94 | 247 | 4.3 | 7.8 | 0.00 | 0.00 | 0.00 | 53 | 1010.8 |
| 20260906191504 | 94 | 201 | 0.9 | 4.3 | 0.00 | 0.00 | 0.00 | 49 | 1011.0 |
| 20260906190003 | 95 | 105 | 0.9 | 3.5 | 0.00 | 0.00 | 0.00 | 47 | 1011.1 |
| 20260906184501 | 92 | 217 | 0.0 | 3.5 | 0.00 | 0.00 | 0.00 | 51 | 1011.3 |
| 20260906183007 | 91 | 19 | 2.6 | 4.3 | 0.00 | 0.00 | 0.00 | 49 | 1011.4 |
| 20260906181501 | 89 | 72 | 0.9 | 3.5 | 0.00 | 0.00 | 0.00 | 57 | 1011.7 |
| 20260906180007 | 88 | 5 | 0.0 | 3.5 | 0.00 | 0.00 | 0.00 | 64 | 1012.0 |
| 20260906174600 | 87 | 77 | 0.9 | 3.5 | 0.00 | 0.00 | 0.00 | 68 | 1012.1 |
| 20260906174500 | 87 | 77 | 0.9 | 3.5 | 0.00 | 0.00 | 0.00 | 69 | 1012.1 |
| 20260906173001 | 86 | 58 | 1.7 | 3.5 | 0.00 | 0.00 | 0.00 | 70 | 1012.4 |
| 20260906171501 | 84 | 49 | 1.7 | 4.3 | 0.00 | 0.00 | 0.00 | 73 | 1012.6 |
| 20260906170009 | 83 | 42 | 1.7 | 3.5 | 0.00 | 0.00 | 0.00 | 76 | 1012.9 |
| 20260906164500 | 81 | 58 | 0.9 | 3.5 | 0.00 | 0.00 | 0.00 | 82 | 1012.9 |
| 20260906163102 | 81 | 65 | 1.7 | 3.5 | 0.00 | 0.00 | 0.00 | 82 | 1013.0 |
| 20260906163001 | 81 | 68 | 1.7 | 4.3 | 0.00 | 0.00 | 0.00 | 82 | 1013.0 |
| 20260906161600 | 83 | 86 | 0.9 | 3.5 | 0.00 | 0.00 | 0.00 | 81 | 1013.0 |
| 20260906161502 | 83 | 107 | 0.9 | 5.2 | 0.00 | 0.00 | 0.00 | 81 | 1013.0 |
| 20260906160112 | 84 | 121 | 0.9 | 3.5 | 0.00 | 0.00 | 0.00 | 78 | 1012.9 |
| 20260906160005 | 84 | 101 | 1.7 | 5.2 | 0.00 | 0.00 | 0.00 | 78 | 1012.9 |
| 20260906154603 | 84 | 102 | 0.9 | 5.2 | 0.00 | 0.00 | 0.00 | 78 | 1012.9 |
| 20260906153105 | 84 | 95 | 0.0 | 4.3 | 0.00 | 0.00 | 0.00 | 78 | 1012.9 |
| 20260906144608 | 84 | 225 | 0.9 | 2.6 | 0.00 | 0.00 | 0.00 | 76 | 1012.4 |
| 20260906143016 | 84 | 156 | 0.9 | 3.5 | 0.00 | 0.00 | 0.00 | 77 | 1012.4 |
| 20260906141507 | 84 | 262 | 1.7 | 6.1 | 0.00 | 0.00 | 0.00 | 76 | 1012.2 |
| 20260906140011 | 84 | 118 | 0.9 | 3.5 | 0.00 | 0.00 | 0.00 | 77 | 1012.1 |
| 20260906134518 | 83 | 130 | 1.7 | 5.2 | 0.00 | 0.00 | 0.00 | 80 | 1012.1 |
| 20260906133006 | 79 | 232 | 0.0 | 1.7 | 0.00 | 0.00 | 0.00 | 84 | 1012.0 |
| 20260906131506 | 78 | 232 | 0.0 | 1.7 | 0.00 | 0.00 | 0.00 | 85 | 1011.7 |
| 20260906130008 | 78 | 232 | 0.0 | 0.9 | 0.00 | 0.00 | 0.00 | 86 | 1011.4 |
| 20260906124504 | 78 | 232 | 0.0 | 0.9 | 0.00 | 0.00 | 0.00 | 86 | 1011.2 |
| 20260906123006 | 77 | 232 | 0.0 | 0.9 | 0.00 | 0.00 | 0.00 | 85 | 1011.1 |
| 20260906121504 | 78 | 232 | 0.0 | 0.9 | 0.00 | 0.00 | 0.00 | 85 | 1010.9 |
| 20260906120006 | 78 | 232 | 0.0 | 0.9 | 0.00 | 0.00 | 0.00 | 85 | 1010.7 |
| 20260906114508 | 78 | 232 | 0.0 | 0.0 | 0.00 | 0.00 | 0.00 | 84 | 1010.5 |
| 20260906113005 | 78 | 232 | 0.0 | 0.0 | 0.00 | 0.00 | 0.00 | 84 | 1010.1 |
| 20260906111504 | 78 | 232 | 0.0 | 0.0 | 0.00 | 0.00 | 0.00 | 84 | 1010.0 |
| 20260906110008 | 78 | 232 | 0.0 | 1.7 | 0.00 | 0.00 | 0.00 | 83 | 1009.8 |
| 20260906104506 | 79 | 232 | 0.0 | 0.9 | 0.00 | 0.00 | 0.00 | 83 | 1009.8 |
| 20260906103004 | 79 | 232 | 0.0 | 0.9 | 0.00 | 0.00 | 0.00 | 83 | 1009.9 |
| 20260906101504 | 79 | 232 | 0.0 | 1.7 | 0.00 | 0.00 | 0.00 | 82 | 1009.8 |
| 20260906100006 | 79 | 232 | 0.0 | 0.9 | 0.00 | 0.00 | 0.00 | 82 | 1009.7 |
| 20260906094504 | 79 | 232 | 0.9 | 2.6 | 0.00 | 0.00 | 0.00 | 81 | 1009.9 |
| 20260906093003 | 79 | 256 | 0.9 | 2.6 | 0.00 | 0.00 | 0.00 | 81 | 1009.9 |
| 20260906091504 | 79 | 236 | 0.9 | 2.6 | 0.00 | 0.00 | 0.00 | 81 | 1009.9 |
| 20260906090007 | 80 | 228 | 0.0 | 1.7 | 0.00 | 0.00 | 0.00 | 80 | 1009.9 |
| 20260906084503 | 80 | 228 | 0.9 | 3.5 | 0.00 | 0.00 | 0.00 | 80 | 1009.8 |
| 20260906083002 | 80 | 238 | 0.9 | 2.6 | 0.00 | 0.00 | 0.00 | 79 | 1009.8 |
| 20260906081503 | 80 | 242 | 0.9 | 3.5 | 0.00 | 0.00 | 0.00 | 78 | 1009.9 |
| 20260906080006 | 81 | 233 | 0.0 | 3.5 | 0.00 | 0.00 | 0.00 | 78 | 1010.1 |
| 20260906074504 | 81 | 222 | 0.0 | 2.6 | 0.00 | 0.00 | 0.00 | 77 | 1010.3 |
| 20260906073003 | 82 | 207 | 0.9 | 3.5 | 0.00 | 0.00 | 0.00 | 76 | 1010.4 |
| 20260906071503 | 82 | 223 | 0.9 | 3.5 | 0.00 | 0.00 | 0.00 | 76 | 1010.5 |
| 20260906070005 | 82 | 261 | 1.7 | 4.3 | 0.00 | 0.00 | 0.00 | 75 | 1010.7 |
| 20260906064503 | 82 | 197 | 0.9 | 3.5 | 0.00 | 0.00 | 0.00 | 75 | 1010.8 |
| 20260906063004 | 83 | 224 | 0.9 | 4.3 | 0.00 | 0.00 | 0.00 | 74 | 1010.9 |
| 20260906061504 | 83 | 309 | 0.0 | 3.5 | 0.00 | 0.00 | 0.00 | 74 | 1011.1 |
| 20260906060010 | 83 | 225 | 0.9 | 2.6 | 0.00 | 0.00 | 0.00 | 73 | 1011.2 |
| 20260906054505 | 83 | 130 | 0.9 | 5.2 | 0.00 | 0.00 | 0.00 | 73 | 1011.1 |
| 20260906053006 | 84 | 332 | 0.0 | 3.5 | 0.00 | 0.00 | 0.00 | 72 | 1010.8 |
| 20260906051506 | 84 | 67 | 0.0 | 3.5 | 0.00 | 0.00 | 0.00 | 71 | 1010.9 |
| 20260906050011 | 84 | 355 | 0.0 | 2.6 | 0.00 | 0.00 | 0.00 | 71 | 1011.0 |
| 20260906044506 | 85 | 87 | 0.0 | 4.3 | 0.00 | 0.00 | 0.00 | 70 | 1011.0 |
| 20260906043008 | 85 | 128 | 0.0 | 7.0 | 0.00 | 0.00 | 0.00 | 70 | 1011.0 |
| 20260906041507 | 85 | 86 | 0.9 | 6.1 | 0.00 | 0.00 | 0.00 | 69 | 1011.0 |
| 20260906040009 | 86 | 109 | 2.6 | 7.8 | 0.00 | 0.00 | 0.00 | 68 | 1010.9 |
| 20260906034509 | 86 | 43 | 0.9 | 7.0 | 0.00 | 0.00 | 0.00 | 66 | 1010.9 |
| 20260906033006 | 87 | 176 | 3.5 | 7.0 | 0.00 | 0.00 | 0.00 | 65 | 1010.9 |
| 20260906031506 | 87 | 76 | 1.7 | 6.1 | 0.00 | 0.00 | 0.00 | 62 | 1010.7 |
| 20260906030008 | 87 | 103 | 3.5 | 7.8 | 0.00 | 0.00 | 0.00 | 61 | 1010.4 |
| 20260906024505 | 88 | 71 | 1.7 | 7.0 | 0.00 | 0.00 | 0.00 | 60 | 1010.0 |
| 20260906023015 | 88 | 50 | 1.7 | 7.8 | 0.00 | 0.00 | 0.00 | 59 | 1009.5 |
| 20260906021506 | 89 | 58 | 1.7 | 5.2 | 0.00 | 0.00 | 0.00 | 59 | 1009.2 |
| 20260906020007 | 89 | 95 | 1.7 | 4.3 | 0.00 | 0.00 | 0.00 | 58 | 1008.9 |
| 20260906014505 | 89 | 59 | 1.7 | 7.8 | 0.00 | 0.00 | 0.00 | 56 | 1008.9 |
| 20260906013005 | 90 | 46 | 1.7 | 4.3 | 0.00 | 0.00 | 0.00 | 54 | 1008.8 |
| 20260906011505 | 91 | 119 | 1.7 | 7.0 | 0.00 | 0.00 | 0.00 | 53 | 1008.8 |
| 20260906010007 | 92 | 56 | 2.6 | 7.0 | 0.00 | 0.00 | 0.00 | 50 | 1008.7 |
| 20260906004509 | 93 | 70 | 2.6 | 7.8 | 0.00 | 0.00 | 0.00 | 47 | 1008.5 |
| 20260906003005 | 94 | 44 | 2.6 | 8.7 | 0.00 | 0.00 | 0.00 | 45 | 1008.4 |
| 20260906001505 | 95 | 83 | 3.5 | 7.8 | 0.00 | 0.00 | 0.00 | 43 | 1008.4 |
| 20260906000007 | 96 | 46 | 1.7 | 4.3 | 0.00 | 0.00 | 0.00 | 42 | 1008.3 |
| 20260905234505 | 97 | 74 | 1.7 | 4.3 | 0.00 | 0.00 | 0.00 | 41 | 1008.3 |
| 20260905233013 | 98 | 105 | 0.9 | 5.2 | 0.00 | 0.00 | 0.00 | 40 | 1008.2 |
| 20260905231505 | 98 | 56 | 2.6 | 5.2 | 0.00 | 0.00 | 0.00 | 39 | 1008.2 |
| 20260905230008 | 99 | 138 | 1.7 | 6.1 | 0.00 | 0.00 | 0.00 | 37 | 1008.3 |
| 20260905224505 | 98 | 234 | 0.9 | 4.3 | 0.00 | 0.00 | 0.00 | 37 | 1008.2 |